sensor_id;sensor_type;location;lat;lon;timestamp;pressure;altitude;pressure_sealevel;temperature;humidity
43480;BME280;29067;35.492;-97.520;2023-01-26T00:00:58;97757.84;;;0.15;51.70
43480;BME280;29067;35.492;-97.520;2023-01-26T00:03:26;97760.20;;;0.26;52.05
43480;BME280;29067;35.492;-97.520;2023-01-26T00:05:54;97761.19;;;0.90;52.02
43480;BME280;29067;35.492;-97.520;2023-01-26T00:08:27;97764.13;;;-0.24;53.34
43480;BME280;29067;35.492;-97.520;2023-01-26T00:10:56;97762.91;;;1.29;51.38
43480;BME280;29067;35.492;-97.520;2023-01-26T00:13:24;97760.53;;;-0.00;52.63
43480;BME280;29067;35.492;-97.520;2023-01-26T00:15:52;97768.01;;;0.19;53.05
43480;BME280;29067;35.492;-97.520;2023-01-26T00:18:20;97774.92;;;0.80;53.65
43480;BME280;29067;35.492;-97.520;2023-01-26T00:20:48;97785.22;;;0.56;54.09
43480;BME280;29067;35.492;-97.520;2023-01-26T00:23:27;97795.37;;;-2.10;59.62
43480;BME280;29067;35.492;-97.520;2023-01-26T00:25:55;97796.08;;;-1.10;58.35
43480;BME280;29067;35.492;-97.520;2023-01-26T00:28:24;97798.81;;;-0.26;57.03
43480;BME280;29067;35.492;-97.520;2023-01-26T00:30:51;97803.32;;;-0.22;56.17
43480;BME280;29067;35.492;-97.520;2023-01-26T00:33:19;97805.39;;;-0.64;57.45
43480;BME280;29067;35.492;-97.520;2023-01-26T00:35:53;97811.96;;;-1.50;59.11
43480;BME280;29067;35.492;-97.520;2023-01-26T00:38:22;97813.00;;;-0.26;56.84
43480;BME280;29067;35.492;-97.520;2023-01-26T00:40:51;97812.27;;;0.58;55.80
43480;BME280;29067;35.492;-97.520;2023-01-26T00:43:18;97821.91;;;-0.61;57.58
43480;BME280;29067;35.492;-97.520;2023-01-26T00:45:47;97827.65;;;-1.48;58.26
43480;BME280;29067;35.492;-97.520;2023-01-26T00:48:16;97829.62;;;0.18;56.54
43480;BME280;29067;35.492;-97.520;2023-01-26T00:50:44;97836.54;;;-0.33;56.51
43480;BME280;29067;35.492;-97.520;2023-01-26T00:53:12;97839.64;;;0.15;56.15
43480;BME280;29067;35.492;-97.520;2023-01-26T00:55:40;97846.29;;;-0.06;55.44
43480;BME280;29067;35.492;-97.520;2023-01-26T00:58:09;97846.40;;;-0.83;56.24
43480;BME280;29067;35.492;-97.520;2023-01-26T01:00:38;97855.70;;;-0.02;55.20
43480;BME280;29067;35.492;-97.520;2023-01-26T01:03:12;97858.92;;;0.38;54.25
43480;BME280;29067;35.492;-97.520;2023-01-26T01:05:40;97862.22;;;0.56;53.38
43480;BME280;29067;35.492;-97.520;2023-01-26T01:08:08;97868.91;;;-0.58;55.10
43480;BME280;29067;35.492;-97.520;2023-01-26T01:10:37;97874.38;;;-0.31;55.45
43480;BME280;29067;35.492;-97.520;2023-01-26T01:13:05;97874.53;;;0.14;54.46
43480;BME280;29067;35.492;-97.520;2023-01-26T01:15:33;97873.78;;;-0.80;54.81
43480;BME280;29067;35.492;-97.520;2023-01-26T01:18:01;97875.21;;;-0.46;55.57
43480;BME280;29067;35.492;-97.520;2023-01-26T01:20:29;97870.08;;;0.45;53.75
43480;BME280;29067;35.492;-97.520;2023-01-26T01:22:57;97868.00;;;0.29;53.29
43480;BME280;29067;35.492;-97.520;2023-01-26T01:25:25;97869.55;;;0.32;52.59
43480;BME280;29067;35.492;-97.520;2023-01-26T01:27:53;97876.89;;;-1.34;55.83
43480;BME280;29067;35.492;-97.520;2023-01-26T01:30:21;97879.41;;;-1.61;56.99
43480;BME280;29067;35.492;-97.520;2023-01-26T01:32:49;97886.21;;;-1.26;57.74
43480;BME280;29067;35.492;-97.520;2023-01-26T01:35:17;97884.52;;;-0.62;56.36
43480;BME280;29067;35.492;-97.520;2023-01-26T01:37:45;97890.20;;;0.23;55.50
43480;BME280;29067;35.492;-97.520;2023-01-26T01:40:14;97893.67;;;0.16;55.05
43480;BME280;29067;35.492;-97.520;2023-01-26T01:42:46;97899.10;;;-0.53;54.50
43480;BME280;29067;35.492;-97.520;2023-01-26T01:45:48;97895.69;;;-0.11;54.05
43480;BME280;29067;35.492;-97.520;2023-01-26T01:48:22;97906.95;;;-2.44;57.63
43480;BME280;29067;35.492;-97.520;2023-01-26T01:50:54;97904.65;;;-1.62;57.39
43480;BME280;29067;35.492;-97.520;2023-01-26T01:53:26;97899.85;;;-0.34;56.05
43480;BME280;29067;35.492;-97.520;2023-01-26T01:55:59;97909.60;;;-1.40;58.05
43480;BME280;29067;35.492;-97.520;2023-01-26T01:58:29;97904.17;;;-1.95;58.14
43480;BME280;29067;35.492;-97.520;2023-01-26T02:00:58;97907.40;;;-1.09;57.72
43480;BME280;29067;35.492;-97.520;2023-01-26T02:03:29;97910.60;;;-1.51;57.42
43480;BME280;29067;35.492;-97.520;2023-01-26T02:06:00;97909.79;;;-2.46;58.95
43480;BME280;29067;35.492;-97.520;2023-01-26T02:08:36;97916.06;;;-2.07;57.70
43480;BME280;29067;35.492;-97.520;2023-01-26T02:11:09;97916.38;;;-1.37;58.35
43480;BME280;29067;35.492;-97.520;2023-01-26T02:13:47;97914.41;;;-1.34;56.64
43480;BME280;29067;35.492;-97.520;2023-01-26T02:16:16;97924.53;;;-2.48;58.29
43480;BME280;29067;35.492;-97.520;2023-01-26T02:18:44;97924.46;;;-0.94;56.26
43480;BME280;29067;35.492;-97.520;2023-01-26T02:21:16;97936.84;;;-1.56;56.90
43480;BME280;29067;35.492;-97.520;2023-01-26T02:23:55;97939.10;;;-1.77;56.38
43480;BME280;29067;35.492;-97.520;2023-01-26T02:26:27;97944.69;;;-1.51;55.32
43480;BME280;29067;35.492;-97.520;2023-01-26T02:28:56;97950.55;;;-2.34;57.99
43480;BME280;29067;35.492;-97.520;2023-01-26T02:31:26;97957.33;;;-2.12;59.00
43480;BME280;29067;35.492;-97.520;2023-01-26T02:33:54;97957.87;;;-2.02;58.61
43480;BME280;29067;35.492;-97.520;2023-01-26T02:36:24;97966.20;;;-3.30;60.39
43480;BME280;29067;35.492;-97.520;2023-01-26T02:39:00;97971.52;;;-1.25;58.54
43480;BME280;29067;35.492;-97.520;2023-01-26T02:41:31;97968.07;;;-2.88;59.37
43480;BME280;29067;35.492;-97.520;2023-01-26T02:43:59;97972.03;;;-2.83;59.12
43480;BME280;29067;35.492;-97.520;2023-01-26T02:46:28;97977.13;;;-1.75;56.83
43480;BME280;29067;35.492;-97.520;2023-01-26T02:48:57;97982.72;;;-0.91;54.91
43480;BME280;29067;35.492;-97.520;2023-01-26T02:51:25;97994.31;;;-2.35;56.47
43480;BME280;29067;35.492;-97.520;2023-01-26T02:53:54;97996.68;;;-3.24;57.99
43480;BME280;29067;35.492;-97.520;2023-01-26T02:56:23;97998.52;;;-2.60;56.93
43480;BME280;29067;35.492;-97.520;2023-01-26T02:58:51;98004.76;;;-3.70;57.52
43480;BME280;29067;35.492;-97.520;2023-01-26T03:01:19;98007.81;;;-3.72;56.92
43480;BME280;29067;35.492;-97.520;2023-01-26T03:03:53;98015.79;;;-2.85;56.55
43480;BME280;29067;35.492;-97.520;2023-01-26T03:06:22;98015.93;;;-2.54;55.81
43480;BME280;29067;35.492;-97.520;2023-01-26T03:08:50;98016.07;;;-1.99;54.23
43480;BME280;29067;35.492;-97.520;2023-01-26T03:11:18;98021.49;;;-1.96;54.61
43480;BME280;29067;35.492;-97.520;2023-01-26T03:13:51;98025.29;;;-2.77;55.00
43480;BME280;29067;35.492;-97.520;2023-01-26T03:16:20;98026.82;;;-2.43;54.53
43480;BME280;29067;35.492;-97.520;2023-01-26T03:18:48;98032.10;;;-3.21;54.67
43480;BME280;29067;35.492;-97.520;2023-01-26T03:21:16;98030.45;;;-1.98;52.06
43480;BME280;29067;35.492;-97.520;2023-01-26T03:23:44;98034.49;;;-2.14;53.19
43480;BME280;29067;35.492;-97.520;2023-01-26T03:26:12;98038.86;;;-2.21;52.96
43480;BME280;29067;35.492;-97.520;2023-01-26T03:28:41;98047.04;;;-3.69;55.37
43480;BME280;29067;35.492;-97.520;2023-01-26T03:31:09;98048.94;;;-4.01;55.52
43480;BME280;29067;35.492;-97.520;2023-01-26T03:33:38;98054.69;;;-3.85;56.90
43480;BME280;29067;35.492;-97.520;2023-01-26T03:36:06;98052.02;;;-3.54;55.69
43480;BME280;29067;35.492;-97.520;2023-01-26T03:38:35;98062.01;;;-4.46;55.96
43480;BME280;29067;35.492;-97.520;2023-01-26T03:41:08;98062.66;;;-2.24;53.38
43480;BME280;29067;35.492;-97.520;2023-01-26T03:43:37;98062.80;;;-3.39;54.80
43480;BME280;29067;35.492;-97.520;2023-01-26T03:46:05;98060.57;;;-2.27;53.84
43480;BME280;29067;35.492;-97.520;2023-01-26T03:48:33;98061.31;;;-2.32;53.78
43480;BME280;29067;35.492;-97.520;2023-01-26T03:51:02;98065.04;;;-3.55;55.90
43480;BME280;29067;35.492;-97.520;2023-01-26T03:53:30;98069.60;;;-2.40;54.42
43480;BME280;29067;35.492;-97.520;2023-01-26T03:55:58;98066.26;;;-2.21;53.71
43480;BME280;29067;35.492;-97.520;2023-01-26T03:58:32;98065.50;;;-1.85;52.33
43480;BME280;29067;35.492;-97.520;2023-01-26T04:00:59;98064.49;;;-0.33;50.02
43480;BME280;29067;35.492;-97.520;2023-01-26T04:03:27;98067.81;;;-2.16;51.32
43480;BME280;29067;35.492;-97.520;2023-01-26T04:05:58;98069.94;;;-1.51;51.41
43480;BME280;29067;35.492;-97.520;2023-01-26T04:08:25;98071.83;;;-1.75;52.10
43480;BME280;29067;35.492;-97.520;2023-01-26T04:10:54;98076.72;;;-2.79;53.11
43480;BME280;29067;35.492;-97.520;2023-01-26T04:13:28;98077.49;;;-2.75;52.69
43480;BME280;29067;35.492;-97.520;2023-01-26T04:15:58;98079.61;;;-1.70;52.09
43480;BME280;29067;35.492;-97.520;2023-01-26T04:18:26;98077.11;;;-1.66;51.27
43480;BME280;29067;35.492;-97.520;2023-01-26T04:20:54;98085.99;;;-2.93;52.45
43480;BME280;29067;35.492;-97.520;2023-01-26T04:23:22;98088.10;;;-2.43;52.95
43480;BME280;29067;35.492;-97.520;2023-01-26T04:25:55;98085.41;;;-1.69;51.35
43480;BME280;29067;35.492;-97.520;2023-01-26T04:28:23;98089.33;;;-2.15;52.20
43480;BME280;29067;35.492;-97.520;2023-01-26T04:30:51;98085.01;;;-1.54;51.75
43480;BME280;29067;35.492;-97.520;2023-01-26T04:33:20;98091.30;;;-2.37;52.29
43480;BME280;29067;35.492;-97.520;2023-01-26T04:35:49;98093.36;;;-1.84;51.62
43480;BME280;29067;35.492;-97.520;2023-01-26T04:38:17;98095.55;;;-2.39;51.78
43480;BME280;29067;35.492;-97.520;2023-01-26T04:40:49;98097.88;;;-2.27;52.24
43480;BME280;29067;35.492;-97.520;2023-01-26T04:43:19;98100.15;;;-1.60;51.50
43480;BME280;29067;35.492;-97.520;2023-01-26T04:45:57;98101.85;;;-2.42;52.04
43480;BME280;29067;35.492;-97.520;2023-01-26T04:48:25;98102.28;;;-1.03;50.77
43480;BME280;29067;35.492;-97.520;2023-01-26T04:50:54;98106.12;;;-1.47;51.04
43480;BME280;29067;35.492;-97.520;2023-01-26T04:53:22;98106.15;;;-0.26;49.25
43480;BME280;29067;35.492;-97.520;2023-01-26T04:55:50;98107.85;;;-1.14;49.51
43480;BME280;29067;35.492;-97.520;2023-01-26T04:58:18;98103.44;;;-0.48;49.21
43480;BME280;29067;35.492;-97.520;2023-01-26T05:00:51;98102.70;;;-1.03;49.09
43480;BME280;29067;35.492;-97.520;2023-01-26T05:03:20;98105.71;;;-1.14;50.09
43480;BME280;29067;35.492;-97.520;2023-01-26T05:05:50;98108.95;;;-0.97;49.06
43480;BME280;29067;35.492;-97.520;2023-01-26T05:08:20;98109.44;;;-0.01;47.89
43480;BME280;29067;35.492;-97.520;2023-01-26T05:10:54;98115.26;;;-1.42;48.53
43480;BME280;29067;35.492;-97.520;2023-01-26T05:13:24;98115.73;;;-1.55;48.42
43480;BME280;29067;35.492;-97.520;2023-01-26T05:15:52;98115.13;;;-0.85;47.45
43480;BME280;29067;35.492;-97.520;2023-01-26T05:18:21;98120.65;;;-0.49;47.15
43480;BME280;29067;35.492;-97.520;2023-01-26T05:20:49;98120.13;;;-0.82;47.59
43480;BME280;29067;35.492;-97.520;2023-01-26T05:23:32;98118.69;;;-1.09;47.94
43480;BME280;29067;35.492;-97.520;2023-01-26T05:26:01;98122.07;;;-1.28;47.82
43480;BME280;29067;35.492;-97.520;2023-01-26T05:28:29;98116.56;;;-1.50;48.16
43480;BME280;29067;35.492;-97.520;2023-01-26T05:30:57;98123.97;;;-2.11;49.47
43480;BME280;29067;35.492;-97.520;2023-01-26T05:33:25;98121.87;;;-1.48;49.33
43480;BME280;29067;35.492;-97.520;2023-01-26T05:35:54;98124.28;;;-2.13;49.40
43480;BME280;29067;35.492;-97.520;2023-01-26T05:38:22;98121.14;;;-1.13;49.08
43480;BME280;29067;35.492;-97.520;2023-01-26T05:40:50;98121.05;;;-1.57;49.61
43480;BME280;29067;35.492;-97.520;2023-01-26T05:43:18;98123.97;;;-1.53;48.95
43480;BME280;29067;35.492;-97.520;2023-01-26T05:45:46;98125.88;;;-1.55;48.74
43480;BME280;29067;35.492;-97.520;2023-01-26T05:48:15;98130.30;;;-1.96;50.82
43480;BME280;29067;35.492;-97.520;2023-01-26T05:50:43;98130.72;;;-1.90;49.51
43480;BME280;29067;35.492;-97.520;2023-01-26T05:53:12;98126.71;;;-0.64;49.42
43480;BME280;29067;35.492;-97.520;2023-01-26T05:55:40;98130.98;;;-1.70;49.26
43480;BME280;29067;35.492;-97.520;2023-01-26T05:58:08;98129.15;;;-1.05;49.56
43480;BME280;29067;35.492;-97.520;2023-01-26T06:00:37;98129.96;;;-2.06;49.74
43480;BME280;29067;35.492;-97.520;2023-01-26T06:03:10;98134.31;;;-2.36;51.87
43480;BME280;29067;35.492;-97.520;2023-01-26T06:05:39;98129.15;;;-2.08;52.03
43480;BME280;29067;35.492;-97.520;2023-01-26T06:08:07;98129.13;;;-1.77;51.53
43480;BME280;29067;35.492;-97.520;2023-01-26T06:10:35;98127.87;;;-2.04;52.08
43480;BME280;29067;35.492;-97.520;2023-01-26T06:13:08;98126.49;;;-2.16;51.18
43480;BME280;29067;35.492;-97.520;2023-01-26T06:15:37;98119.96;;;-2.04;51.76
43480;BME280;29067;35.492;-97.520;2023-01-26T06:18:07;98113.82;;;-0.67;49.87
43480;BME280;29067;35.492;-97.520;2023-01-26T06:20:39;98111.96;;;-1.55;50.43
43480;BME280;29067;35.492;-97.520;2023-01-26T06:23:08;98114.02;;;-1.36;49.54
43480;BME280;29067;35.492;-97.520;2023-01-26T06:25:36;98113.53;;;-2.20;50.29
43480;BME280;29067;35.492;-97.520;2023-01-26T06:28:04;98119.45;;;-2.48;51.25
43480;BME280;29067;35.492;-97.520;2023-01-26T06:30:32;98123.60;;;-2.52;51.56
43480;BME280;29067;35.492;-97.520;2023-01-26T06:33:00;98128.66;;;-2.30;51.98
43480;BME280;29067;35.492;-97.520;2023-01-26T06:35:29;98125.70;;;-2.36;51.41
43480;BME280;29067;35.492;-97.520;2023-01-26T06:37:58;98125.27;;;-1.73;51.11
43480;BME280;29067;35.492;-97.520;2023-01-26T06:40:26;98127.98;;;-2.39;51.95
43480;BME280;29067;35.492;-97.520;2023-01-26T06:42:54;98127.47;;;-1.21;50.97
43480;BME280;29067;35.492;-97.520;2023-01-26T06:45:27;98124.37;;;-2.82;52.81
43480;BME280;29067;35.492;-97.520;2023-01-26T06:47:56;98124.84;;;-2.05;53.04
43480;BME280;29067;35.492;-97.520;2023-01-26T06:50:31;98121.15;;;-1.91;51.01
43480;BME280;29067;35.492;-97.520;2023-01-26T06:53:03;98118.21;;;-1.73;51.09
43480;BME280;29067;35.492;-97.520;2023-01-26T06:55:41;98116.57;;;-2.01;51.50
43480;BME280;29067;35.492;-97.520;2023-01-26T06:58:10;98119.17;;;-2.08;51.51
43480;BME280;29067;35.492;-97.520;2023-01-26T07:00:38;98120.30;;;-2.83;52.03
43480;BME280;29067;35.492;-97.520;2023-01-26T07:03:07;98116.55;;;-1.83;50.62
43480;BME280;29067;35.492;-97.520;2023-01-26T07:05:35;98118.58;;;-1.65;50.79
43480;BME280;29067;35.492;-97.520;2023-01-26T07:08:03;98121.11;;;-2.33;51.28
43480;BME280;29067;35.492;-97.520;2023-01-26T07:10:31;98121.29;;;-3.04;52.24
43480;BME280;29067;35.492;-97.520;2023-01-26T07:12:59;98122.97;;;-1.65;51.22
43480;BME280;29067;35.492;-97.520;2023-01-26T07:15:28;98122.12;;;-2.45;52.25
43480;BME280;29067;35.492;-97.520;2023-01-26T07:17:57;98125.40;;;-3.05;52.83
43480;BME280;29067;35.492;-97.520;2023-01-26T07:20:26;98119.65;;;-1.73;51.22
43480;BME280;29067;35.492;-97.520;2023-01-26T07:22:55;98126.70;;;-1.77;50.68
43480;BME280;29067;35.492;-97.520;2023-01-26T07:25:23;98134.03;;;-2.24;50.48
43480;BME280;29067;35.492;-97.520;2023-01-26T07:27:55;98133.19;;;-2.22;51.13
43480;BME280;29067;35.492;-97.520;2023-01-26T07:30:24;98135.58;;;-2.01;50.41
43480;BME280;29067;35.492;-97.520;2023-01-26T07:32:53;98138.65;;;-1.81;50.41
43480;BME280;29067;35.492;-97.520;2023-01-26T07:35:21;98145.98;;;-2.42;50.32
43480;BME280;29067;35.492;-97.520;2023-01-26T07:37:49;98143.19;;;-1.26;49.27
43480;BME280;29067;35.492;-97.520;2023-01-26T07:40:18;98144.03;;;-1.99;49.96
43480;BME280;29067;35.492;-97.520;2023-01-26T07:42:46;98143.02;;;-2.87;51.21
43480;BME280;29067;35.492;-97.520;2023-01-26T07:45:14;98146.64;;;-2.34;51.58
43480;BME280;29067;35.492;-97.520;2023-01-26T07:47:42;98148.79;;;-1.50;50.32
43480;BME280;29067;35.492;-97.520;2023-01-26T07:50:11;98146.50;;;-1.57;49.91
43480;BME280;29067;35.492;-97.520;2023-01-26T07:52:39;98149.91;;;-1.44;50.09
43480;BME280;29067;35.492;-97.520;2023-01-26T07:55:12;98150.01;;;-2.00;50.10
43480;BME280;29067;35.492;-97.520;2023-01-26T07:57:40;98139.88;;;-1.88;49.09
43480;BME280;29067;35.492;-97.520;2023-01-26T08:00:10;98141.81;;;-1.07;49.21
43480;BME280;29067;35.492;-97.520;2023-01-26T08:02:38;98144.19;;;-1.76;49.68
43480;BME280;29067;35.492;-97.520;2023-01-26T08:05:13;98148.07;;;-1.99;50.25
43480;BME280;29067;35.492;-97.520;2023-01-26T08:07:42;98148.18;;;-1.51;49.81
43480;BME280;29067;35.492;-97.520;2023-01-26T08:10:11;98148.42;;;-1.97;50.41
43480;BME280;29067;35.492;-97.520;2023-01-26T08:12:39;98149.86;;;-2.52;51.10
43480;BME280;29067;35.492;-97.520;2023-01-26T08:15:08;98150.47;;;-2.64;51.44
43480;BME280;29067;35.492;-97.520;2023-01-26T08:17:36;98152.86;;;-2.93;51.82
43480;BME280;29067;35.492;-97.520;2023-01-26T08:20:05;98152.65;;;-2.31;50.72
43480;BME280;29067;35.492;-97.520;2023-01-26T08:22:33;98152.22;;;-2.75;51.39
43480;BME280;29067;35.492;-97.520;2023-01-26T08:25:01;98159.95;;;-2.64;52.06
43480;BME280;29067;35.492;-97.520;2023-01-26T08:27:29;98164.03;;;-3.08;53.10
43480;BME280;29067;35.492;-97.520;2023-01-26T08:29:58;98166.63;;;-3.06;52.66
43480;BME280;29067;35.492;-97.520;2023-01-26T08:32:27;98171.18;;;-2.37;52.83
43480;BME280;29067;35.492;-97.520;2023-01-26T08:34:55;98171.95;;;-1.96;51.33
43480;BME280;29067;35.492;-97.520;2023-01-26T08:37:24;98172.20;;;-2.22;52.58
43480;BME280;29067;35.492;-97.520;2023-01-26T08:39:52;98175.37;;;-2.27;51.65
43480;BME280;29067;35.492;-97.520;2023-01-26T08:42:21;98177.50;;;-1.73;50.53
43480;BME280;29067;35.492;-97.520;2023-01-26T08:44:49;98178.63;;;-2.72;51.13
43480;BME280;29067;35.492;-97.520;2023-01-26T08:47:17;98187.08;;;-2.64;50.81
43480;BME280;29067;35.492;-97.520;2023-01-26T08:49:45;98200.31;;;-3.09;52.57
43480;BME280;29067;35.492;-97.520;2023-01-26T08:52:13;98207.84;;;-3.33;53.35
43480;BME280;29067;35.492;-97.520;2023-01-26T08:54:41;98205.02;;;-3.89;54.33
43480;BME280;29067;35.492;-97.520;2023-01-26T08:57:09;98201.88;;;-3.28;53.02
43480;BME280;29067;35.492;-97.520;2023-01-26T08:59:38;98206.19;;;-3.47;53.41
43480;BME280;29067;35.492;-97.520;2023-01-26T09:02:07;98205.74;;;-3.20;52.56
43480;BME280;29067;35.492;-97.520;2023-01-26T09:04:35;98205.98;;;-3.43;52.73
43480;BME280;29067;35.492;-97.520;2023-01-26T09:07:04;98208.30;;;-3.81;53.43
43480;BME280;29067;35.492;-97.520;2023-01-26T09:09:32;98205.78;;;-2.63;51.85
43480;BME280;29067;35.492;-97.520;2023-01-26T09:12:01;98202.48;;;-2.85;51.79
43480;BME280;29067;35.492;-97.520;2023-01-26T09:14:29;98201.74;;;-3.46;52.17
43480;BME280;29067;35.492;-97.520;2023-01-26T09:16:57;98196.88;;;-2.85;51.71
43480;BME280;29067;35.492;-97.520;2023-01-26T09:19:25;98199.06;;;-2.57;50.87
43480;BME280;29067;35.492;-97.520;2023-01-26T09:21:54;98197.94;;;-1.78;49.63
43480;BME280;29067;35.492;-97.520;2023-01-26T09:24:22;98190.99;;;-2.67;50.11
43480;BME280;29067;35.492;-97.520;2023-01-26T09:26:51;98190.90;;;-2.58;50.12
43480;BME280;29067;35.492;-97.520;2023-01-26T09:29:20;98191.93;;;-1.62;49.35
43480;BME280;29067;35.492;-97.520;2023-01-26T09:31:48;98196.10;;;-2.96;50.84
43480;BME280;29067;35.492;-97.520;2023-01-26T09:34:16;98203.32;;;-2.52;50.83
43480;BME280;29067;35.492;-97.520;2023-01-26T09:36:44;98205.18;;;-2.76;50.99
43480;BME280;29067;35.492;-97.520;2023-01-26T09:39:12;98204.19;;;-2.96;52.35
43480;BME280;29067;35.492;-97.520;2023-01-26T09:41:50;98196.40;;;-3.13;52.34
43480;BME280;29067;35.492;-97.520;2023-01-26T09:44:24;98191.59;;;-2.30;50.96
43480;BME280;29067;35.492;-97.520;2023-01-26T09:47:03;98191.44;;;-2.59;51.48
43480;BME280;29067;35.492;-97.520;2023-01-26T09:49:43;98180.13;;;-2.98;51.70
43480;BME280;29067;35.492;-97.520;2023-01-26T09:52:19;98176.32;;;-3.10;52.02
43480;BME280;29067;35.492;-97.520;2023-01-26T09:54:52;98178.06;;;-3.53;51.68
43480;BME280;29067;35.492;-97.520;2023-01-26T09:57:26;98180.23;;;-2.82;52.38
43480;BME280;29067;35.492;-97.520;2023-01-26T10:00:00;98178.83;;;-2.61;52.21
43480;BME280;29067;35.492;-97.520;2023-01-26T10:02:48;98181.64;;;-2.69;52.01
43480;BME280;29067;35.492;-97.520;2023-01-26T10:05:27;98184.00;;;-2.25;51.64
43480;BME280;29067;35.492;-97.520;2023-01-26T10:07:57;98177.74;;;-2.35;51.90
43480;BME280;29067;35.492;-97.520;2023-01-26T10:10:28;98170.99;;;-3.18;52.49
43480;BME280;29067;35.492;-97.520;2023-01-26T10:12:58;98171.74;;;-3.36;53.92
43480;BME280;29067;35.492;-97.520;2023-01-26T10:15:29;98181.53;;;-3.68;53.56
43480;BME280;29067;35.492;-97.520;2023-01-26T10:18:04;98186.80;;;-3.60;54.77
43480;BME280;29067;35.492;-97.520;2023-01-26T10:20:36;98186.18;;;-2.68;53.56
43480;BME280;29067;35.492;-97.520;2023-01-26T10:23:10;98182.15;;;-3.08;53.45
43480;BME280;29067;35.492;-97.520;2023-01-26T10:25:40;98177.79;;;-3.85;54.65
43480;BME280;29067;35.492;-97.520;2023-01-26T10:28:14;98169.17;;;-3.35;55.29
43480;BME280;29067;35.492;-97.520;2023-01-26T10:30:43;98166.83;;;-3.43;54.85
43480;BME280;29067;35.492;-97.520;2023-01-26T10:33:15;98160.78;;;-2.62;54.04
43480;BME280;29067;35.492;-97.520;2023-01-26T10:35:45;98159.12;;;-3.61;54.77
43480;BME280;29067;35.492;-97.520;2023-01-26T10:38:52;98158.58;;;-3.48;54.30
43480;BME280;29067;35.492;-97.520;2023-01-26T10:41:26;98166.58;;;-3.03;55.50
43480;BME280;29067;35.492;-97.520;2023-01-26T10:43:57;98175.28;;;-3.81;56.08
43480;BME280;29067;35.492;-97.520;2023-01-26T10:46:28;98171.19;;;-2.99;54.56
43480;BME280;29067;35.492;-97.520;2023-01-26T10:48:59;98175.61;;;-2.95;54.74
43480;BME280;29067;35.492;-97.520;2023-01-26T10:51:30;98176.31;;;-2.64;54.00
43480;BME280;29067;35.492;-97.520;2023-01-26T10:54:36;98174.06;;;-1.62;51.95
43480;BME280;29067;35.492;-97.520;2023-01-26T10:57:10;98169.55;;;-2.58;53.37
43480;BME280;29067;35.492;-97.520;2023-01-26T10:59:42;98170.00;;;-2.20;52.87
43480;BME280;29067;35.492;-97.520;2023-01-26T11:02:22;98180.53;;;-2.65;53.57
43480;BME280;29067;35.492;-97.520;2023-01-26T11:05:23;98186.20;;;-3.27;55.60
43480;BME280;29067;35.492;-97.520;2023-01-26T11:07:52;98193.10;;;-2.96;54.93
43480;BME280;29067;35.492;-97.520;2023-01-26T11:10:24;98196.41;;;-3.30;55.37
43480;BME280;29067;35.492;-97.520;2023-01-26T11:13:12;98196.02;;;-3.49;55.89
43480;BME280;29067;35.492;-97.520;2023-01-26T11:15:42;98187.58;;;-3.86;55.70
43480;BME280;29067;35.492;-97.520;2023-01-26T11:18:27;98176.49;;;-2.77;54.75
43480;BME280;29067;35.492;-97.520;2023-01-26T11:21:04;98185.48;;;-4.09;56.67
43480;BME280;29067;35.492;-97.520;2023-01-26T11:23:44;98189.52;;;-3.92;57.44
43480;BME280;29067;35.492;-97.520;2023-01-26T11:26:32;98186.26;;;-3.78;58.04
43480;BME280;29067;35.492;-97.520;2023-01-26T11:29:21;98186.56;;;-3.57;56.44
43480;BME280;29067;35.492;-97.520;2023-01-26T11:31:56;98191.57;;;-4.17;56.60
43480;BME280;29067;35.492;-97.520;2023-01-26T11:34:32;98194.83;;;-3.75;57.41
43480;BME280;29067;35.492;-97.520;2023-01-26T11:37:30;98195.95;;;-4.06;57.73
43480;BME280;29067;35.492;-97.520;2023-01-26T11:40:12;98189.17;;;-3.00;56.25
43480;BME280;29067;35.492;-97.520;2023-01-26T11:42:47;98188.15;;;-3.50;56.77
43480;BME280;29067;35.492;-97.520;2023-01-26T11:45:22;98193.15;;;-4.19;56.34
43480;BME280;29067;35.492;-97.520;2023-01-26T11:48:05;98193.65;;;-4.51;58.34
43480;BME280;29067;35.492;-97.520;2023-01-26T11:50:39;98192.14;;;-3.70;56.40
43480;BME280;29067;35.492;-97.520;2023-01-26T11:53:26;98191.79;;;-3.40;55.92
43480;BME280;29067;35.492;-97.520;2023-01-26T11:56:11;98195.65;;;-3.46;55.56
43480;BME280;29067;35.492;-97.520;2023-01-26T11:58:50;98203.44;;;-3.93;55.56
43480;BME280;29067;35.492;-97.520;2023-01-26T12:03:04;98215.35;;;-3.78;54.84
43480;BME280;29067;35.492;-97.520;2023-01-26T12:05:39;98216.48;;;-3.38;54.67
43480;BME280;29067;35.492;-97.520;2023-01-26T12:08:20;98220.12;;;-4.17;55.56
43480;BME280;29067;35.492;-97.520;2023-01-26T12:11:04;98219.22;;;-3.99;56.36
43480;BME280;29067;35.492;-97.520;2023-01-26T12:13:36;98223.56;;;-3.65;55.51
43480;BME280;29067;35.492;-97.520;2023-01-26T12:16:12;98230.82;;;-4.84;56.89
43480;BME280;29067;35.492;-97.520;2023-01-26T12:18:50;98228.25;;;-2.98;54.56
43480;BME280;29067;35.492;-97.520;2023-01-26T12:21:22;98219.01;;;-2.61;53.71
43480;BME280;29067;35.492;-97.520;2023-01-26T12:23:55;98216.04;;;-2.83;53.33
43480;BME280;29067;35.492;-97.520;2023-01-26T12:26:26;98221.07;;;-3.91;55.52
43480;BME280;29067;35.492;-97.520;2023-01-26T12:29:02;98220.19;;;-2.83;54.01
43480;BME280;29067;35.492;-97.520;2023-01-26T12:31:39;98226.40;;;-3.56;54.69
43480;BME280;29067;35.492;-97.520;2023-01-26T12:34:12;98232.87;;;-4.51;55.93
43480;BME280;29067;35.492;-97.520;2023-01-26T12:36:47;98236.54;;;-4.76;56.00
43480;BME280;29067;35.492;-97.520;2023-01-26T12:39:26;98237.56;;;-4.52;57.25
43480;BME280;29067;35.492;-97.520;2023-01-26T12:42:05;98238.35;;;-4.05;56.63
43480;BME280;29067;35.492;-97.520;2023-01-26T12:44:40;98238.66;;;-3.57;56.03
43480;BME280;29067;35.492;-97.520;2023-01-26T12:47:15;98238.71;;;-4.64;57.06
43480;BME280;29067;35.492;-97.520;2023-01-26T12:49:49;98244.86;;;-4.23;56.62
43480;BME280;29067;35.492;-97.520;2023-01-26T12:52:24;98250.56;;;-4.63;56.21
43480;BME280;29067;35.492;-97.520;2023-01-26T12:55:00;98253.62;;;-4.45;55.96
43480;BME280;29067;35.492;-97.520;2023-01-26T12:57:37;98255.56;;;-4.88;56.70
43480;BME280;29067;35.492;-97.520;2023-01-26T13:00:18;98253.68;;;-4.03;56.54
43480;BME280;29067;35.492;-97.520;2023-01-26T13:02:50;98256.18;;;-5.62;57.98